Terminal Aerodrome Forecast
Issued by NWS Jackson, KY

Home | Current Version | Previous Version | Text Only | Print | Product List | Glossary On
Versions: 1 2 3 4 5 6 7 8 9 10 11 12 13 14 15 16 17 18 19
442
FTUS43 KJKL 152010 AAB
TAFJKL
TAF AMD
KJKL 152010Z 1520/1618 22008KT P6SM SCT025 BKN035
     FM152030 24008KT P6SM -SHRA VCTS BKN025CB OVC035
     FM152300 34010G18KT P6SM OVC020
     FM160100 35008KT P6SM BKN015
     FM161000 VRB04KT P6SM FEW020 SCT025=

USA.gov is the U.S. government's official web portal to all federal, state and local government web resources and services.